sensor_id;sensor_type;location;lat;lon;timestamp;P1;durP1;ratioP1;P2;durP2;ratioP2
46717;SDS011;32448;44.960;-0.698;2022-12-01T00:01:23;18.20;;;9.43;;
46717;SDS011;32448;44.960;-0.698;2022-12-01T00:03:50;16.88;;;9.15;;
46717;SDS011;32448;44.960;-0.698;2022-12-01T00:06:18;15.82;;;9.32;;
46717;SDS011;32448;44.960;-0.698;2022-12-01T00:08:48;18.52;;;9.18;;
46717;SDS011;32448;44.960;-0.698;2022-12-01T00:11:35;15.65;;;8.95;;
46717;SDS011;32448;44.960;-0.698;2022-12-01T00:14:04;15.23;;;8.70;;
46717;SDS011;32448;44.960;-0.698;2022-12-01T00:16:32;18.02;;;9.15;;
46717;SDS011;32448;44.960;-0.698;2022-12-01T00:19:00;17.95;;;9.13;;
46717;SDS011;32448;44.960;-0.698;2022-12-01T00:21:27;16.20;;;9.05;;
46717;SDS011;32448;44.960;-0.698;2022-12-01T00:23:55;17.95;;;8.93;;
46717;SDS011;32448;44.960;-0.698;2022-12-01T00:26:24;17.00;;;8.95;;
46717;SDS011;32448;44.960;-0.698;2022-12-01T00:28:55;16.30;;;8.50;;
46717;SDS011;32448;44.960;-0.698;2022-12-01T00:31:25;18.17;;;8.50;;
46717;SDS011;32448;44.960;-0.698;2022-12-01T00:33:53;16.00;;;8.95;;
46717;SDS011;32448;44.960;-0.698;2022-12-01T00:36:21;17.98;;;8.98;;
46717;SDS011;32448;44.960;-0.698;2022-12-01T00:38:51;19.92;;;9.13;;
46717;SDS011;32448;44.960;-0.698;2022-12-01T00:41:20;17.23;;;9.15;;
46717;SDS011;32448;44.960;-0.698;2022-12-01T00:43:52;15.93;;;8.48;;
46717;SDS011;32448;44.960;-0.698;2022-12-01T00:46:19;17.95;;;9.10;;
46717;SDS011;32448;44.960;-0.698;2022-12-01T00:48:47;15.02;;;9.25;;
46717;SDS011;32448;44.960;-0.698;2022-12-01T00:51:15;19.20;;;8.75;;
46717;SDS011;32448;44.960;-0.698;2022-12-01T00:53:42;12.57;;;7.88;;
46717;SDS011;32448;44.960;-0.698;2022-12-01T00:56:09;13.52;;;8.20;;
46717;SDS011;32448;44.960;-0.698;2022-12-01T00:58:36;15.02;;;8.63;;
46717;SDS011;32448;44.960;-0.698;2022-12-01T01:01:04;16.60;;;8.30;;
46717;SDS011;32448;44.960;-0.698;2022-12-01T01:03:32;14.65;;;8.52;;
46717;SDS011;32448;44.960;-0.698;2022-12-01T01:06:07;14.48;;;7.93;;
46717;SDS011;32448;44.960;-0.698;2022-12-01T01:08:37;14.52;;;8.13;;
46717;SDS011;32448;44.960;-0.698;2022-12-01T01:11:05;14.90;;;7.75;;
46717;SDS011;32448;44.960;-0.698;2022-12-01T01:13:33;18.52;;;8.00;;
46717;SDS011;32448;44.960;-0.698;2022-12-01T01:16:02;12.68;;;7.53;;
46717;SDS011;32448;44.960;-0.698;2022-12-01T01:18:37;12.27;;;6.97;;
46717;SDS011;32448;44.960;-0.698;2022-12-01T01:21:05;17.58;;;8.68;;
46717;SDS011;32448;44.960;-0.698;2022-12-01T01:23:36;17.65;;;8.38;;
46717;SDS011;32448;44.960;-0.698;2022-12-01T01:26:05;13.75;;;7.32;;
46717;SDS011;32448;44.960;-0.698;2022-12-01T01:28:43;13.77;;;7.22;;
46717;SDS011;32448;44.960;-0.698;2022-12-01T01:31:12;12.52;;;7.18;;
46717;SDS011;32448;44.960;-0.698;2022-12-01T01:33:42;18.50;;;7.95;;
46717;SDS011;32448;44.960;-0.698;2022-12-01T01:36:10;12.23;;;7.85;;
46717;SDS011;32448;44.960;-0.698;2022-12-01T01:38:38;12.68;;;7.80;;
46717;SDS011;32448;44.960;-0.698;2022-12-01T01:41:10;13.88;;;7.45;;
46717;SDS011;32448;44.960;-0.698;2022-12-01T01:43:45;13.20;;;7.65;;
46717;SDS011;32448;44.960;-0.698;2022-12-01T01:46:18;13.43;;;7.65;;
46717;SDS011;32448;44.960;-0.698;2022-12-01T01:48:51;12.05;;;6.90;;
46717;SDS011;32448;44.960;-0.698;2022-12-01T01:51:47;10.43;;;6.75;;
46717;SDS011;32448;44.960;-0.698;2022-12-01T01:54:18;12.85;;;7.10;;
46717;SDS011;32448;44.960;-0.698;2022-12-01T01:56:49;12.33;;;6.90;;
46717;SDS011;32448;44.960;-0.698;2022-12-01T01:59:21;14.45;;;7.30;;
46717;SDS011;32448;44.960;-0.698;2022-12-01T02:01:56;11.32;;;7.15;;
46717;SDS011;32448;44.960;-0.698;2022-12-01T02:04:36;14.50;;;7.70;;
46717;SDS011;32448;44.960;-0.698;2022-12-01T02:07:07;15.95;;;7.53;;
46717;SDS011;32448;44.960;-0.698;2022-12-01T02:09:35;13.75;;;7.32;;
46717;SDS011;32448;44.960;-0.698;2022-12-01T02:26:15;13.68;;;6.93;;
46717;SDS011;32448;44.960;-0.698;2022-12-01T02:29:12;10.88;;;6.68;;
46717;SDS011;32448;44.960;-0.698;2022-12-01T02:31:59;13.18;;;6.97;;
46717;SDS011;32448;44.960;-0.698;2022-12-01T02:40:05;11.32;;;7.00;;
46717;SDS011;32448;44.960;-0.698;2022-12-01T02:42:48;16.13;;;7.05;;
46717;SDS011;32448;44.960;-0.698;2022-12-01T02:45:36;14.10;;;7.00;;
46717;SDS011;32448;44.960;-0.698;2022-12-01T02:48:19;10.98;;;6.57;;
46717;SDS011;32448;44.960;-0.698;2022-12-01T02:50:58;11.32;;;6.40;;
46717;SDS011;32448;44.960;-0.698;2022-12-01T02:53:33;9.60;;;6.63;;
46717;SDS011;32448;44.960;-0.698;2022-12-01T02:56:04;13.73;;;7.50;;
46717;SDS011;32448;44.960;-0.698;2022-12-01T02:58:33;12.80;;;6.90;;
46717;SDS011;32448;44.960;-0.698;2022-12-01T03:06:27;15.98;;;6.85;;
46717;SDS011;32448;44.960;-0.698;2022-12-01T03:08:59;12.45;;;7.05;;
46717;SDS011;32448;44.960;-0.698;2022-12-01T03:12:04;15.45;;;7.35;;
46717;SDS011;32448;44.960;-0.698;2022-12-01T03:14:50;11.20;;;6.70;;
46717;SDS011;32448;44.960;-0.698;2022-12-01T03:17:22;12.95;;;6.22;;
46717;SDS011;32448;44.960;-0.698;2022-12-01T03:19:55;13.80;;;7.18;;
46717;SDS011;32448;44.960;-0.698;2022-12-01T03:22:32;11.82;;;6.15;;
46717;SDS011;32448;44.960;-0.698;2022-12-01T03:25:12;11.85;;;6.43;;
46717;SDS011;32448;44.960;-0.698;2022-12-01T03:27:42;13.10;;;7.22;;
46717;SDS011;32448;44.960;-0.698;2022-12-01T03:30:32;12.82;;;7.22;;
46717;SDS011;32448;44.960;-0.698;2022-12-01T03:33:07;17.75;;;7.22;;
46717;SDS011;32448;44.960;-0.698;2022-12-01T03:35:45;16.30;;;7.72;;
46717;SDS011;32448;44.960;-0.698;2022-12-01T03:38:23;11.70;;;6.45;;
46717;SDS011;32448;44.960;-0.698;2022-12-01T03:40:55;14.45;;;7.45;;
46717;SDS011;32448;44.960;-0.698;2022-12-01T03:43:30;14.10;;;7.47;;
46717;SDS011;32448;44.960;-0.698;2022-12-01T03:48:49;15.25;;;7.43;;
46717;SDS011;32448;44.960;-0.698;2022-12-01T03:51:22;11.88;;;7.45;;
46717;SDS011;32448;44.960;-0.698;2022-12-01T03:56:36;14.05;;;7.07;;
46717;SDS011;32448;44.960;-0.698;2022-12-01T03:59:10;14.60;;;7.57;;
46717;SDS011;32448;44.960;-0.698;2022-12-01T04:01:40;15.15;;;7.32;;
46717;SDS011;32448;44.960;-0.698;2022-12-01T04:04:09;14.68;;;6.93;;
46717;SDS011;32448;44.960;-0.698;2022-12-01T04:06:38;12.43;;;7.32;;
46717;SDS011;32448;44.960;-0.698;2022-12-01T04:09:08;14.55;;;6.93;;
46717;SDS011;32448;44.960;-0.698;2022-12-01T04:11:36;41.95;;;16.70;;
46717;SDS011;32448;44.960;-0.698;2022-12-01T04:14:22;33.92;;;14.60;;
46717;SDS011;32448;44.960;-0.698;2022-12-01T04:16:49;16.50;;;8.70;;
46717;SDS011;32448;44.960;-0.698;2022-12-01T04:19:16;12.32;;;6.97;;
46717;SDS011;32448;44.960;-0.698;2022-12-01T04:21:44;13.27;;;6.63;;
46717;SDS011;32448;44.960;-0.698;2022-12-01T04:24:11;13.00;;;6.05;;
46717;SDS011;32448;44.960;-0.698;2022-12-01T04:26:39;11.57;;;6.57;;
46717;SDS011;32448;44.960;-0.698;2022-12-01T04:29:08;13.57;;;7.28;;
46717;SDS011;32448;44.960;-0.698;2022-12-01T04:31:37;12.82;;;6.82;;
46717;SDS011;32448;44.960;-0.698;2022-12-01T04:34:05;9.68;;;5.95;;
46717;SDS011;32448;44.960;-0.698;2022-12-01T04:36:33;13.38;;;6.90;;
46717;SDS011;32448;44.960;-0.698;2022-12-01T04:39:01;15.82;;;7.63;;
46717;SDS011;32448;44.960;-0.698;2022-12-01T04:41:29;15.27;;;7.20;;
46717;SDS011;32448;44.960;-0.698;2022-12-01T04:43:57;18.67;;;8.02;;
46717;SDS011;32448;44.960;-0.698;2022-12-01T04:46:24;71.43;;;23.90;;
46717;SDS011;32448;44.960;-0.698;2022-12-01T04:48:52;50.92;;;16.42;;
46717;SDS011;32448;44.960;-0.698;2022-12-01T04:51:19;21.77;;;9.70;;
46717;SDS011;32448;44.960;-0.698;2022-12-01T04:53:48;28.00;;;12.10;;
46717;SDS011;32448;44.960;-0.698;2022-12-01T04:56:19;12.88;;;7.22;;
46717;SDS011;32448;44.960;-0.698;2022-12-01T04:58:47;12.65;;;6.53;;
46717;SDS011;32448;44.960;-0.698;2022-12-01T05:01:22;10.30;;;5.65;;
46717;SDS011;32448;44.960;-0.698;2022-12-01T05:03:51;12.00;;;5.93;;
46717;SDS011;32448;44.960;-0.698;2022-12-01T05:06:23;12.32;;;6.63;;
46717;SDS011;32448;44.960;-0.698;2022-12-01T05:08:59;13.63;;;6.40;;
46717;SDS011;32448;44.960;-0.698;2022-12-01T05:11:28;14.25;;;7.13;;
46717;SDS011;32448;44.960;-0.698;2022-12-01T05:13:56;11.68;;;6.30;;
46717;SDS011;32448;44.960;-0.698;2022-12-01T05:16:26;11.82;;;6.47;;
46717;SDS011;32448;44.960;-0.698;2022-12-01T05:18:55;12.77;;;6.40;;
46717;SDS011;32448;44.960;-0.698;2022-12-01T05:21:43;14.90;;;6.35;;
46717;SDS011;32448;44.960;-0.698;2022-12-01T05:24:13;12.63;;;6.65;;
46717;SDS011;32448;44.960;-0.698;2022-12-01T05:26:41;15.45;;;6.65;;
46717;SDS011;32448;44.960;-0.698;2022-12-01T05:29:10;12.18;;;6.72;;
46717;SDS011;32448;44.960;-0.698;2022-12-01T05:31:38;11.90;;;6.05;;
46717;SDS011;32448;44.960;-0.698;2022-12-01T05:34:05;15.70;;;7.88;;
46717;SDS011;32448;44.960;-0.698;2022-12-01T05:36:33;160.15;;;76.63;;
46717;SDS011;32448;44.960;-0.698;2022-12-01T05:39:01;130.48;;;63.95;;
46717;SDS011;32448;44.960;-0.698;2022-12-01T05:41:28;30.98;;;16.02;;
46717;SDS011;32448;44.960;-0.698;2022-12-01T05:43:56;17.88;;;9.25;;
46717;SDS011;32448;44.960;-0.698;2022-12-01T05:46:23;18.88;;;8.43;;
46717;SDS011;32448;44.960;-0.698;2022-12-01T05:48:51;13.55;;;7.20;;
46717;SDS011;32448;44.960;-0.698;2022-12-01T05:51:18;15.10;;;7.40;;
46717;SDS011;32448;44.960;-0.698;2022-12-01T05:53:46;13.93;;;6.65;;
46717;SDS011;32448;44.960;-0.698;2022-12-01T05:56:13;14.95;;;7.00;;
46717;SDS011;32448;44.960;-0.698;2022-12-01T05:58:41;11.30;;;6.75;;
46717;SDS011;32448;44.960;-0.698;2022-12-01T06:01:09;11.77;;;6.65;;
46717;SDS011;32448;44.960;-0.698;2022-12-01T06:03:37;16.13;;;7.53;;
46717;SDS011;32448;44.960;-0.698;2022-12-01T06:06:04;14.27;;;6.40;;
46717;SDS011;32448;44.960;-0.698;2022-12-01T06:08:31;13.55;;;7.05;;
46717;SDS011;32448;44.960;-0.698;2022-12-01T06:10:59;14.77;;;7.50;;
46717;SDS011;32448;44.960;-0.698;2022-12-01T06:13:27;17.25;;;7.95;;
46717;SDS011;32448;44.960;-0.698;2022-12-01T06:15:58;17.20;;;7.88;;
46717;SDS011;32448;44.960;-0.698;2022-12-01T06:18:29;25.02;;;12.35;;
46717;SDS011;32448;44.960;-0.698;2022-12-01T06:20:59;25.05;;;12.60;;
46717;SDS011;32448;44.960;-0.698;2022-12-01T06:23:27;16.58;;;8.00;;
46717;SDS011;32448;44.960;-0.698;2022-12-01T06:25:57;16.63;;;7.63;;
46717;SDS011;32448;44.960;-0.698;2022-12-01T06:28:25;16.42;;;7.85;;
46717;SDS011;32448;44.960;-0.698;2022-12-01T06:30:53;18.90;;;8.10;;
46717;SDS011;32448;44.960;-0.698;2022-12-01T06:33:28;17.63;;;7.82;;
46717;SDS011;32448;44.960;-0.698;2022-12-01T06:36:02;12.52;;;7.47;;
46717;SDS011;32448;44.960;-0.698;2022-12-01T06:38:32;16.67;;;8.10;;
46717;SDS011;32448;44.960;-0.698;2022-12-01T06:41:02;15.88;;;8.57;;
46717;SDS011;32448;44.960;-0.698;2022-12-01T06:43:36;18.25;;;9.30;;
46717;SDS011;32448;44.960;-0.698;2022-12-01T06:46:07;26.40;;;14.07;;
46717;SDS011;32448;44.960;-0.698;2022-12-01T06:48:35;22.25;;;13.93;;
46717;SDS011;32448;44.960;-0.698;2022-12-01T06:51:04;25.48;;;13.73;;
46717;SDS011;32448;44.960;-0.698;2022-12-01T06:53:36;27.67;;;14.57;;
46717;SDS011;32448;44.960;-0.698;2022-12-01T06:56:04;24.35;;;13.95;;
46717;SDS011;32448;44.960;-0.698;2022-12-01T06:58:32;20.73;;;13.02;;
46717;SDS011;32448;44.960;-0.698;2022-12-01T07:01:06;21.25;;;11.95;;
46717;SDS011;32448;44.960;-0.698;2022-12-01T07:03:36;18.85;;;11.48;;
46717;SDS011;32448;44.960;-0.698;2022-12-01T07:06:06;19.60;;;12.75;;
46717;SDS011;32448;44.960;-0.698;2022-12-01T07:08:34;18.63;;;10.98;;
46717;SDS011;32448;44.960;-0.698;2022-12-01T07:11:04;20.52;;;10.65;;
46717;SDS011;32448;44.960;-0.698;2022-12-01T07:13:40;17.27;;;9.05;;
46717;SDS011;32448;44.960;-0.698;2022-12-01T07:16:11;17.40;;;9.43;;
46717;SDS011;32448;44.960;-0.698;2022-12-01T07:18:39;17.13;;;9.45;;
46717;SDS011;32448;44.960;-0.698;2022-12-01T07:21:07;19.02;;;9.98;;
46717;SDS011;32448;44.960;-0.698;2022-12-01T07:23:42;19.70;;;9.13;;
46717;SDS011;32448;44.960;-0.698;2022-12-01T07:26:11;14.50;;;8.57;;
46717;SDS011;32448;44.960;-0.698;2022-12-01T07:28:41;17.77;;;8.45;;
46717;SDS011;32448;44.960;-0.698;2022-12-01T07:31:16;23.08;;;8.88;;
46717;SDS011;32448;44.960;-0.698;2022-12-01T07:33:45;18.77;;;8.88;;
46717;SDS011;32448;44.960;-0.698;2022-12-01T07:36:14;18.95;;;9.23;;
46717;SDS011;32448;44.960;-0.698;2022-12-01T07:38:42;22.45;;;12.45;;
46717;SDS011;32448;44.960;-0.698;2022-12-01T07:41:15;53.92;;;24.65;;
46717;SDS011;32448;44.960;-0.698;2022-12-01T07:43:49;91.72;;;43.25;;
46717;SDS011;32448;44.960;-0.698;2022-12-01T07:46:20;58.72;;;29.52;;
46717;SDS011;32448;44.960;-0.698;2022-12-01T07:48:51;38.63;;;22.10;;
46717;SDS011;32448;44.960;-0.698;2022-12-01T07:51:20;42.72;;;21.92;;
46717;SDS011;32448;44.960;-0.698;2022-12-01T07:53:52;61.90;;;32.72;;
46717;SDS011;32448;44.960;-0.698;2022-12-01T07:56:22;41.30;;;22.70;;
46717;SDS011;32448;44.960;-0.698;2022-12-01T07:58:50;37.63;;;20.85;;
46717;SDS011;32448;44.960;-0.698;2022-12-01T08:01:20;34.40;;;20.50;;
46717;SDS011;32448;44.960;-0.698;2022-12-01T08:03:50;30.92;;;17.73;;
46717;SDS011;32448;44.960;-0.698;2022-12-01T08:06:21;29.30;;;17.52;;
46717;SDS011;32448;44.960;-0.698;2022-12-01T08:08:51;41.55;;;23.42;;
46717;SDS011;32448;44.960;-0.698;2022-12-01T08:11:23;53.20;;;31.75;;
46717;SDS011;32448;44.960;-0.698;2022-12-01T08:13:54;55.95;;;32.15;;
46717;SDS011;32448;44.960;-0.698;2022-12-01T08:16:23;45.70;;;27.27;;
46717;SDS011;32448;44.960;-0.698;2022-12-01T08:18:51;40.28;;;23.23;;
46717;SDS011;32448;44.960;-0.698;2022-12-01T08:21:21;40.90;;;21.95;;
46717;SDS011;32448;44.960;-0.698;2022-12-01T08:23:52;35.25;;;19.88;;
46717;SDS011;32448;44.960;-0.698;2022-12-01T08:26:24;36.30;;;18.83;;
46717;SDS011;32448;44.960;-0.698;2022-12-01T08:28:57;38.58;;;21.85;;
46717;SDS011;32448;44.960;-0.698;2022-12-01T08:31:26;45.35;;;24.58;;
46717;SDS011;32448;44.960;-0.698;2022-12-01T08:33:58;47.65;;;24.85;;
46717;SDS011;32448;44.960;-0.698;2022-12-01T08:36:26;45.90;;;24.50;;
46717;SDS011;32448;44.960;-0.698;2022-12-01T08:38:57;44.80;;;23.90;;
46717;SDS011;32448;44.960;-0.698;2022-12-01T08:41:25;45.53;;;23.90;;
46717;SDS011;32448;44.960;-0.698;2022-12-01T08:43:54;45.20;;;23.65;;
46717;SDS011;32448;44.960;-0.698;2022-12-01T08:46:29;49.15;;;21.67;;
46717;SDS011;32448;44.960;-0.698;2022-12-01T08:49:00;118.43;;;40.20;;
46717;SDS011;32448;44.960;-0.698;2022-12-01T08:51:30;129.90;;;43.33;;
46717;SDS011;32448;44.960;-0.698;2022-12-01T08:54:00;153.95;;;45.10;;
46717;SDS011;32448;44.960;-0.698;2022-12-01T08:56:30;231.95;;;61.50;;
46717;SDS011;32448;44.960;-0.698;2022-12-01T08:59:00;196.43;;;54.70;;
46717;SDS011;32448;44.960;-0.698;2022-12-01T09:01:28;125.10;;;35.67;;
46717;SDS011;32448;44.960;-0.698;2022-12-01T09:03:56;83.65;;;28.90;;
46717;SDS011;32448;44.960;-0.698;2022-12-01T09:06:36;79.10;;;25.63;;
46717;SDS011;32448;44.960;-0.698;2022-12-01T09:09:09;61.45;;;21.40;;
46717;SDS011;32448;44.960;-0.698;2022-12-01T09:11:41;55.78;;;19.35;;
46717;SDS011;32448;44.960;-0.698;2022-12-01T09:14:15;55.97;;;20.58;;
46717;SDS011;32448;44.960;-0.698;2022-12-01T09:16:45;58.00;;;20.70;;
46717;SDS011;32448;44.960;-0.698;2022-12-01T09:19:21;53.25;;;19.50;;
46717;SDS011;32448;44.960;-0.698;2022-12-01T09:21:51;57.03;;;20.85;;
46717;SDS011;32448;44.960;-0.698;2022-12-01T09:24:20;57.75;;;19.48;;
46717;SDS011;32448;44.960;-0.698;2022-12-01T09:26:53;49.65;;;19.40;;
46717;SDS011;32448;44.960;-0.698;2022-12-01T09:29:23;45.47;;;17.70;;
46717;SDS011;32448;44.960;-0.698;2022-12-01T09:31:56;42.60;;;17.98;;
46717;SDS011;32448;44.960;-0.698;2022-12-01T09:34:27;44.35;;;17.27;;
46717;SDS011;32448;44.960;-0.698;2022-12-01T09:36:57;42.47;;;16.13;;
46717;SDS011;32448;44.960;-0.698;2022-12-01T09:39:24;41.67;;;16.23;;
46717;SDS011;32448;44.960;-0.698;2022-12-01T09:42:01;40.67;;;16.20;;
46717;SDS011;32448;44.960;-0.698;2022-12-01T09:44:45;36.33;;;15.82;;
46717;SDS011;32448;44.960;-0.698;2022-12-01T09:47:21;37.65;;;15.60;;
46717;SDS011;32448;44.960;-0.698;2022-12-01T09:52:37;36.22;;;15.02;;
46717;SDS011;32448;44.960;-0.698;2022-12-01T09:55:12;31.55;;;13.63;;
46717;SDS011;32448;44.960;-0.698;2022-12-01T09:57:48;33.45;;;14.27;;
46717;SDS011;32448;44.960;-0.698;2022-12-01T10:00:22;34.60;;;14.13;;
46717;SDS011;32448;44.960;-0.698;2022-12-01T10:05:48;29.92;;;13.65;;
46717;SDS011;32448;44.960;-0.698;2022-12-01T10:08:58;29.33;;;13.27;;
46717;SDS011;32448;44.960;-0.698;2022-12-01T10:11:35;30.17;;;13.95;;
46717;SDS011;32448;44.960;-0.698;2022-12-01T10:25:29;31.67;;;14.57;;
46717;SDS011;32448;44.960;-0.698;2022-12-01T10:30:48;29.90;;;13.88;;
46717;SDS011;32448;44.960;-0.698;2022-12-01T10:35:53;30.65;;;15.02;;
46717;SDS011;32448;44.960;-0.698;2022-12-01T10:40:53;33.58;;;16.33;;
46717;SDS011;32448;44.960;-0.698;2022-12-01T10:43:36;31.58;;;15.35;;
46717;SDS011;32448;44.960;-0.698;2022-12-01T10:46:29;29.58;;;15.23;;
46717;SDS011;32448;44.960;-0.698;2022-12-01T10:49:06;32.17;;;14.77;;
46717;SDS011;32448;44.960;-0.698;2022-12-01T10:54:21;28.58;;;14.75;;
46717;SDS011;32448;44.960;-0.698;2022-12-01T10:56:58;27.77;;;14.10;;
46717;SDS011;32448;44.960;-0.698;2022-12-01T11:02:13;27.70;;;14.15;;
46717;SDS011;32448;44.960;-0.698;2022-12-01T11:04:54;26.80;;;14.07;;
46717;SDS011;32448;44.960;-0.698;2022-12-01T11:10:18;25.17;;;13.43;;
46717;SDS011;32448;44.960;-0.698;2022-12-01T11:12:53;24.83;;;13.02;;
46717;SDS011;32448;44.960;-0.698;2022-12-01T11:15:31;23.42;;;12.45;;
46717;SDS011;32448;44.960;-0.698;2022-12-01T11:18:51;22.77;;;12.32;;
46717;SDS011;32448;44.960;-0.698;2022-12-01T11:21:08;19.77;;;11.02;;
46717;SDS011;32448;44.960;-0.698;2022-12-01T11:23:50;17.77;;;10.77;;
46717;SDS011;32448;44.960;-0.698;2022-12-01T11:29:00;22.80;;;11.45;;
46717;SDS011;32448;44.960;-0.698;2022-12-01T11:31:38;18.38;;;10.38;;
46717;SDS011;32448;44.960;-0.698;2022-12-01T11:34:18;15.13;;;9.40;;
46717;SDS011;32448;44.960;-0.698;2022-12-01T11:36:47;16.10;;;9.77;;
46717;SDS011;32448;44.960;-0.698;2022-12-01T11:39:30;17.25;;;9.18;;
46717;SDS011;32448;44.960;-0.698;2022-12-01T11:44:54;18.30;;;10.18;;
46717;SDS011;32448;44.960;-0.698;2022-12-01T11:47:36;18.52;;;10.00;;
46717;SDS011;32448;44.960;-0.698;2022-12-01T11:50:25;17.67;;;9.40;;
46717;SDS011;32448;44.960;-0.698;2022-12-01T11:52:55;17.77;;;9.23;;
46717;SDS011;32448;44.960;-0.698;2022-12-01T11:55:24;15.43;;;9.00;;
46717;SDS011;32448;44.960;-0.698;2022-12-01T11:57:56;14.77;;;8.68;;
46717;SDS011;32448;44.960;-0.698;2022-12-01T12:00:28;17.42;;;9.23;;
46717;SDS011;32448;44.960;-0.698;2022-12-01T12:14:44;17.10;;;9.30;;
46717;SDS011;32448;44.960;-0.698;2022-12-01T12:18:01;16.40;;;9.10;;
46717;SDS011;32448;44.960;-0.698;2022-12-01T12:20:51;14.25;;;8.93;;
46717;SDS011;32448;44.960;-0.698;2022-12-01T12:26:24;16.45;;;8.77;;
46717;SDS011;32448;44.960;-0.698;2022-12-01T12:34:25;16.98;;;8.45;;
46717;SDS011;32448;44.960;-0.698;2022-12-01T12:39:49;11.75;;;7.78;;
46717;SDS011;32448;44.960;-0.698;2022-12-01T12:45:39;13.70;;;8.88;;
46717;SDS011;32448;44.960;-0.698;2022-12-01T12:51:30;15.57;;;8.03;;
46717;SDS011;32448;44.960;-0.698;2022-12-01T12:56:42;15.40;;;9.18;;
46717;SDS011;32448;44.960;-0.698;2022-12-01T12:59:21;15.82;;;9.85;;
46717;SDS011;32448;44.960;-0.698;2022-12-01T13:07:51;16.67;;;10.68;;
46717;SDS011;32448;44.960;-0.698;2022-12-01T13:16:20;17.42;;;9.60;;
46717;SDS011;32448;44.960;-0.698;2022-12-01T13:19:01;17.58;;;10.63;;
46717;SDS011;32448;44.960;-0.698;2022-12-01T13:21:41;15.40;;;10.50;;
46717;SDS011;32448;44.960;-0.698;2022-12-01T13:24:12;17.33;;;10.52;;
46717;SDS011;32448;44.960;-0.698;2022-12-01T13:26:51;17.30;;;10.75;;
46717;SDS011;32448;44.960;-0.698;2022-12-01T13:29:26;18.77;;;11.20;;
46717;SDS011;32448;44.960;-0.698;2022-12-01T13:34:55;20.17;;;10.60;;
46717;SDS011;32448;44.960;-0.698;2022-12-01T13:37:34;16.98;;;10.05;;
46717;SDS011;32448;44.960;-0.698;2022-12-01T13:40:19;18.70;;;11.98;;
46717;SDS011;32448;44.960;-0.698;2022-12-01T13:43:04;17.58;;;11.10;;
46717;SDS011;32448;44.960;-0.698;2022-12-01T13:45:49;21.65;;;12.60;;
46717;SDS011;32448;44.960;-0.698;2022-12-01T13:51:15;23.60;;;12.93;;
46717;SDS011;32448;44.960;-0.698;2022-12-01T13:53:54;19.55;;;12.45;;
46717;SDS011;32448;44.960;-0.698;2022-12-01T13:56:23;17.48;;;11.18;;
46717;SDS011;32448;44.960;-0.698;2022-12-01T14:02:26;18.95;;;11.88;;
46717;SDS011;32448;44.960;-0.698;2022-12-01T14:07:57;19.17;;;11.70;;
46717;SDS011;32448;44.960;-0.698;2022-12-01T14:10:29;18.17;;;10.75;;
46717;SDS011;32448;44.960;-0.698;2022-12-01T14:13:01;17.67;;;10.93;;
46717;SDS011;32448;44.960;-0.698;2022-12-01T14:15:37;18.27;;;11.15;;
46717;SDS011;32448;44.960;-0.698;2022-12-01T14:18:23;19.38;;;11.48;;
46717;SDS011;32448;44.960;-0.698;2022-12-01T14:21:02;18.02;;;10.30;;
46717;SDS011;32448;44.960;-0.698;2022-12-01T14:26:41;15.15;;;10.00;;
46717;SDS011;32448;44.960;-0.698;2022-12-01T14:29:24;16.50;;;10.07;;
46717;SDS011;32448;44.960;-0.698;2022-12-01T14:34:20;15.07;;;10.32;;
46717;SDS011;32448;44.960;-0.698;2022-12-01T14:39:55;19.40;;;11.10;;
46717;SDS011;32448;44.960;-0.698;2022-12-01T14:42:31;19.35;;;12.20;;
46717;SDS011;32448;44.960;-0.698;2022-12-01T14:45:41;21.20;;;12.50;;
46717;SDS011;32448;44.960;-0.698;2022-12-01T14:48:30;22.80;;;12.27;;
46717;SDS011;32448;44.960;-0.698;2022-12-01T14:51:30;20.10;;;12.07;;
46717;SDS011;32448;44.960;-0.698;2022-12-01T14:54:17;21.95;;;12.43;;
46717;SDS011;32448;44.960;-0.698;2022-12-01T14:56:53;21.33;;;12.93;;
46717;SDS011;32448;44.960;-0.698;2022-12-01T14:59:34;21.48;;;12.05;;
46717;SDS011;32448;44.960;-0.698;2022-12-01T15:02:04;21.33;;;12.93;;
46717;SDS011;32448;44.960;-0.698;2022-12-01T15:07:42;23.27;;;13.02;;
46717;SDS011;32448;44.960;-0.698;2022-12-01T15:10:47;25.38;;;13.25;;
46717;SDS011;32448;44.960;-0.698;2022-12-01T15:13:30;24.15;;;13.32;;
46717;SDS011;32448;44.960;-0.698;2022-12-01T15:16:16;20.42;;;12.60;;
46717;SDS011;32448;44.960;-0.698;2022-12-01T15:18:50;20.02;;;12.68;;
46717;SDS011;32448;44.960;-0.698;2022-12-01T15:21:28;19.42;;;12.30;;
46717;SDS011;32448;44.960;-0.698;2022-12-01T15:24:03;25.15;;;13.32;;
46717;SDS011;32448;44.960;-0.698;2022-12-01T15:26:51;20.60;;;11.63;;
46717;SDS011;32448;44.960;-0.698;2022-12-01T15:29:42;18.40;;;11.35;;
46717;SDS011;32448;44.960;-0.698;2022-12-01T15:32:14;19.90;;;11.10;;
46717;SDS011;32448;44.960;-0.698;2022-12-01T15:34:49;17.63;;;10.90;;
46717;SDS011;32448;44.960;-0.698;2022-12-01T15:37:21;18.65;;;11.32;;
46717;SDS011;32448;44.960;-0.698;2022-12-01T15:39:58;15.40;;;9.93;;
46717;SDS011;32448;44.960;-0.698;2022-12-01T15:43:04;18.00;;;10.32;;
46717;SDS011;32448;44.960;-0.698;2022-12-01T15:45:57;17.88;;;10.40;;
46717;SDS011;32448;44.960;-0.698;2022-12-01T15:48:43;19.40;;;10.88;;
46717;SDS011;32448;44.960;-0.698;2022-12-01T15:51:27;18.05;;;10.35;;
46717;SDS011;32448;44.960;-0.698;2022-12-01T15:54:02;16.95;;;10.32;;
46717;SDS011;32448;44.960;-0.698;2022-12-01T15:56:34;18.23;;;10.35;;
46717;SDS011;32448;44.960;-0.698;2022-12-01T16:01:39;16.92;;;10.35;;
46717;SDS011;32448;44.960;-0.698;2022-12-01T16:04:19;20.67;;;10.20;;
46717;SDS011;32448;44.960;-0.698;2022-12-01T16:09:35;20.02;;;11.13;;
46717;SDS011;32448;44.960;-0.698;2022-12-01T16:12:27;19.85;;;10.75;;
46717;SDS011;32448;44.960;-0.698;2022-12-01T16:17:49;21.50;;;11.57;;
46717;SDS011;32448;44.960;-0.698;2022-12-01T16:20:33;21.23;;;11.48;;
46717;SDS011;32448;44.960;-0.698;2022-12-01T16:23:19;23.40;;;11.70;;
46717;SDS011;32448;44.960;-0.698;2022-12-01T16:25:56;22.60;;;12.88;;
46717;SDS011;32448;44.960;-0.698;2022-12-01T16:28:34;21.55;;;13.13;;
46717;SDS011;32448;44.960;-0.698;2022-12-01T16:31:03;22.10;;;12.75;;
46717;SDS011;32448;44.960;-0.698;2022-12-01T16:33:36;26.30;;;13.45;;
46717;SDS011;32448;44.960;-0.698;2022-12-01T16:36:04;25.02;;;13.52;;
46717;SDS011;32448;44.960;-0.698;2022-12-01T16:38:33;23.10;;;12.90;;
46717;SDS011;32448;44.960;-0.698;2022-12-01T16:41:15;20.30;;;12.68;;
46717;SDS011;32448;44.960;-0.698;2022-12-01T16:43:45;20.50;;;11.80;;
46717;SDS011;32448;44.960;-0.698;2022-12-01T16:46:40;21.58;;;13.00;;
46717;SDS011;32448;44.960;-0.698;2022-12-01T16:49:31;24.42;;;13.82;;
46717;SDS011;32448;44.960;-0.698;2022-12-01T16:51:58;24.25;;;13.13;;
46717;SDS011;32448;44.960;-0.698;2022-12-01T16:54:42;24.00;;;13.52;;
46717;SDS011;32448;44.960;-0.698;2022-12-01T16:57:17;24.60;;;13.77;;
46717;SDS011;32448;44.960;-0.698;2022-12-01T16:59:57;25.17;;;13.55;;
46717;SDS011;32448;44.960;-0.698;2022-12-01T17:02:26;24.08;;;13.57;;
46717;SDS011;32448;44.960;-0.698;2022-12-01T17:04:56;24.23;;;13.60;;
46717;SDS011;32448;44.960;-0.698;2022-12-01T17:07:24;24.52;;;13.52;;
46717;SDS011;32448;44.960;-0.698;2022-12-01T17:09:56;25.67;;;13.82;;
46717;SDS011;32448;44.960;-0.698;2022-12-01T17:12:24;23.63;;;14.05;;
46717;SDS011;32448;44.960;-0.698;2022-12-01T17:14:53;23.33;;;13.50;;
46717;SDS011;32448;44.960;-0.698;2022-12-01T17:17:23;24.80;;;13.55;;